sensor_id;sensor_type;location;lat;lon;timestamp;P1;durP1;ratioP1;P2;durP2;ratioP2
13238;SDS011;6686;51.292;4.166;2022-11-20T00:01:05;16.27;;;11.90;;
13238;SDS011;6686;51.292;4.166;2022-11-20T00:03:54;18.70;;;13.07;;
13238;SDS011;6686;51.292;4.166;2022-11-20T00:06:39;18.12;;;15.68;;
13238;SDS011;6686;51.292;4.166;2022-11-20T00:09:26;17.13;;;13.80;;
13238;SDS011;6686;51.292;4.166;2022-11-20T00:12:11;17.03;;;12.97;;
13238;SDS011;6686;51.292;4.166;2022-11-20T00:14:58;18.03;;;13.43;;
13238;SDS011;6686;51.292;4.166;2022-11-20T00:17:43;16.67;;;12.63;;
13238;SDS011;6686;51.292;4.166;2022-11-20T00:20:29;16.87;;;12.77;;
13238;SDS011;6686;51.292;4.166;2022-11-20T00:23:15;17.80;;;13.23;;
13238;SDS011;6686;51.292;4.166;2022-11-20T00:26:08;15.17;;;12.37;;
13238;SDS011;6686;51.292;4.166;2022-11-20T00:28:54;15.37;;;12.23;;
13238;SDS011;6686;51.292;4.166;2022-11-20T00:31:39;16.70;;;12.20;;
13238;SDS011;6686;51.292;4.166;2022-11-20T00:34:25;15.90;;;12.27;;
13238;SDS011;6686;51.292;4.166;2022-11-20T00:37:12;19.27;;;12.50;;
13238;SDS011;6686;51.292;4.166;2022-11-20T00:39:58;18.77;;;15.25;;
13238;SDS011;6686;51.292;4.166;2022-11-20T00:42:44;17.40;;;14.00;;
13238;SDS011;6686;51.292;4.166;2022-11-20T00:45:29;15.63;;;12.57;;
13238;SDS011;6686;51.292;4.166;2022-11-20T00:48:15;17.33;;;12.43;;
13238;SDS011;6686;51.292;4.166;2022-11-20T00:51:01;18.35;;;15.50;;
13238;SDS011;6686;51.292;4.166;2022-11-20T00:53:47;17.73;;;13.50;;
13238;SDS011;6686;51.292;4.166;2022-11-20T00:56:33;18.95;;;15.73;;
13238;SDS011;6686;51.292;4.166;2022-11-20T00:59:19;17.42;;;15.50;;
13238;SDS011;6686;51.292;4.166;2022-11-20T01:02:05;17.67;;;14.60;;
13238;SDS011;6686;51.292;4.166;2022-11-20T01:04:51;17.17;;;13.20;;
13238;SDS011;6686;51.292;4.166;2022-11-20T01:07:37;19.17;;;14.10;;
13238;SDS011;6686;51.292;4.166;2022-11-20T01:10:23;18.70;;;15.27;;
13238;SDS011;6686;51.292;4.166;2022-11-20T01:13:09;19.00;;;16.35;;
13238;SDS011;6686;51.292;4.166;2022-11-20T01:16:15;19.17;;;14.47;;
13238;SDS011;6686;51.292;4.166;2022-11-20T01:19:01;23.40;;;14.57;;
13238;SDS011;6686;51.292;4.166;2022-11-20T01:21:48;20.77;;;14.70;;
13238;SDS011;6686;51.292;4.166;2022-11-20T01:24:33;23.47;;;15.13;;
13238;SDS011;6686;51.292;4.166;2022-11-20T01:27:18;20.90;;;15.20;;
13238;SDS011;6686;51.292;4.166;2022-11-20T01:30:04;21.63;;;15.30;;
13238;SDS011;6686;51.292;4.166;2022-11-20T01:32:50;22.67;;;15.77;;
13238;SDS011;6686;51.292;4.166;2022-11-20T01:35:37;27.70;;;16.13;;
13238;SDS011;6686;51.292;4.166;2022-11-20T01:38:23;21.40;;;15.00;;
13238;SDS011;6686;51.292;4.166;2022-11-20T01:41:10;23.13;;;15.60;;
13238;SDS011;6686;51.292;4.166;2022-11-20T01:43:55;24.27;;;16.00;;
13238;SDS011;6686;51.292;4.166;2022-11-20T01:46:51;24.63;;;16.37;;
13238;SDS011;6686;51.292;4.166;2022-11-20T01:49:47;23.20;;;14.87;;
13238;SDS011;6686;51.292;4.166;2022-11-20T01:52:36;21.87;;;15.33;;
13238;SDS011;6686;51.292;4.166;2022-11-20T01:55:33;23.97;;;16.17;;
13238;SDS011;6686;51.292;4.166;2022-11-20T01:58:12;25.20;;;17.37;;
13238;SDS011;6686;51.292;4.166;2022-11-20T02:00:58;21.93;;;15.87;;
13238;SDS011;6686;51.292;4.166;2022-11-20T02:03:44;23.50;;;16.23;;
13238;SDS011;6686;51.292;4.166;2022-11-20T02:06:30;20.93;;;15.17;;
13238;SDS011;6686;51.292;4.166;2022-11-20T02:09:16;26.47;;;15.57;;
13238;SDS011;6686;51.292;4.166;2022-11-20T02:12:01;27.90;;;16.87;;
13238;SDS011;6686;51.292;4.166;2022-11-20T02:14:48;22.43;;;15.40;;
13238;SDS011;6686;51.292;4.166;2022-11-20T02:17:34;26.17;;;16.03;;
13238;SDS011;6686;51.292;4.166;2022-11-20T02:20:20;26.50;;;19.33;;
13238;SDS011;6686;51.292;4.166;2022-11-20T02:23:11;28.08;;;20.85;;
13238;SDS011;6686;51.292;4.166;2022-11-20T02:25:55;26.90;;;17.23;;
13238;SDS011;6686;51.292;4.166;2022-11-20T02:28:41;27.73;;;20.67;;
13238;SDS011;6686;51.292;4.166;2022-11-20T02:31:27;23.73;;;16.10;;
13238;SDS011;6686;51.292;4.166;2022-11-20T02:34:13;24.83;;;15.80;;
13238;SDS011;6686;51.292;4.166;2022-11-20T02:36:59;24.92;;;19.58;;
13238;SDS011;6686;51.292;4.166;2022-11-20T02:39:46;23.07;;;17.03;;
13238;SDS011;6686;51.292;4.166;2022-11-20T02:42:33;25.77;;;16.33;;
13238;SDS011;6686;51.292;4.166;2022-11-20T02:45:19;24.97;;;16.03;;
13238;SDS011;6686;51.292;4.166;2022-11-20T02:48:05;26.67;;;16.60;;
13238;SDS011;6686;51.292;4.166;2022-11-20T02:50:50;26.60;;;17.13;;
13238;SDS011;6686;51.292;4.166;2022-11-20T02:53:36;24.20;;;15.77;;
13238;SDS011;6686;51.292;4.166;2022-11-20T02:56:22;22.40;;;15.60;;
13238;SDS011;6686;51.292;4.166;2022-11-20T02:59:08;23.33;;;15.53;;
13238;SDS011;6686;51.292;4.166;2022-11-20T03:01:54;23.90;;;16.17;;
13238;SDS011;6686;51.292;4.166;2022-11-20T03:04:40;25.13;;;15.87;;
13238;SDS011;6686;51.292;4.166;2022-11-20T03:07:26;24.87;;;16.33;;
13238;SDS011;6686;51.292;4.166;2022-11-20T03:10:13;26.43;;;15.83;;
13238;SDS011;6686;51.292;4.166;2022-11-20T03:12:59;25.83;;;15.90;;
13238;SDS011;6686;51.292;4.166;2022-11-20T03:15:45;26.13;;;16.57;;
13238;SDS011;6686;51.292;4.166;2022-11-20T03:18:31;29.50;;;16.73;;
13238;SDS011;6686;51.292;4.166;2022-11-20T03:21:17;26.07;;;17.73;;
13238;SDS011;6686;51.292;4.166;2022-11-20T03:24:03;28.80;;;17.27;;
13238;SDS011;6686;51.292;4.166;2022-11-20T03:26:49;33.43;;;19.00;;
13238;SDS011;6686;51.292;4.166;2022-11-20T03:29:35;34.37;;;19.10;;
13238;SDS011;6686;51.292;4.166;2022-11-20T03:32:21;33.33;;;19.90;;
13238;SDS011;6686;51.292;4.166;2022-11-20T03:35:06;37.53;;;22.23;;
13238;SDS011;6686;51.292;4.166;2022-11-20T03:37:52;40.67;;;25.00;;
13238;SDS011;6686;51.292;4.166;2022-11-20T03:40:39;44.60;;;24.33;;
13238;SDS011;6686;51.292;4.166;2022-11-20T03:43:25;42.30;;;25.03;;
13238;SDS011;6686;51.292;4.166;2022-11-20T03:46:10;43.10;;;25.23;;
13238;SDS011;6686;51.292;4.166;2022-11-20T03:48:56;48.83;;;26.07;;
13238;SDS011;6686;51.292;4.166;2022-11-20T03:51:42;41.10;;;23.90;;
13238;SDS011;6686;51.292;4.166;2022-11-20T03:54:28;42.60;;;23.97;;
13238;SDS011;6686;51.292;4.166;2022-11-20T03:57:14;43.83;;;24.53;;
13238;SDS011;6686;51.292;4.166;2022-11-20T04:00:00;43.27;;;24.20;;
13238;SDS011;6686;51.292;4.166;2022-11-20T04:02:46;42.73;;;23.97;;
13238;SDS011;6686;51.292;4.166;2022-11-20T04:05:32;39.03;;;23.87;;
13238;SDS011;6686;51.292;4.166;2022-11-20T04:08:18;44.67;;;25.53;;
13238;SDS011;6686;51.292;4.166;2022-11-20T04:11:15;40.67;;;24.10;;
13238;SDS011;6686;51.292;4.166;2022-11-20T04:13:57;43.30;;;24.53;;
13238;SDS011;6686;51.292;4.166;2022-11-20T04:16:43;42.90;;;25.50;;
13238;SDS011;6686;51.292;4.166;2022-11-20T04:19:28;44.87;;;25.23;;
13238;SDS011;6686;51.292;4.166;2022-11-20T04:22:14;47.53;;;30.35;;
13238;SDS011;6686;51.292;4.166;2022-11-20T04:25:00;44.70;;;25.30;;
13238;SDS011;6686;51.292;4.166;2022-11-20T04:27:46;46.07;;;25.73;;
13238;SDS011;6686;51.292;4.166;2022-11-20T04:30:32;40.83;;;25.83;;
13238;SDS011;6686;51.292;4.166;2022-11-20T04:33:18;42.47;;;25.53;;
13238;SDS011;6686;51.292;4.166;2022-11-20T04:36:04;43.40;;;24.13;;
13238;SDS011;6686;51.292;4.166;2022-11-20T04:38:52;43.40;;;24.17;;
13238;SDS011;6686;51.292;4.166;2022-11-20T04:41:38;43.03;;;25.10;;
13238;SDS011;6686;51.292;4.166;2022-11-20T04:44:24;44.90;;;29.12;;
13238;SDS011;6686;51.292;4.166;2022-11-20T04:47:10;43.57;;;26.33;;
13238;SDS011;6686;51.292;4.166;2022-11-20T04:49:56;43.63;;;25.60;;
13238;SDS011;6686;51.292;4.166;2022-11-20T04:52:42;44.90;;;24.60;;
13238;SDS011;6686;51.292;4.166;2022-11-20T04:55:28;39.67;;;23.27;;
13238;SDS011;6686;51.292;4.166;2022-11-20T04:58:14;42.83;;;24.63;;
13238;SDS011;6686;51.292;4.166;2022-11-20T05:01:07;47.87;;;25.53;;
13238;SDS011;6686;51.292;4.166;2022-11-20T05:03:54;42.00;;;23.70;;
13238;SDS011;6686;51.292;4.166;2022-11-20T05:06:40;42.03;;;25.13;;
13238;SDS011;6686;51.292;4.166;2022-11-20T05:09:26;39.77;;;24.13;;
13238;SDS011;6686;51.292;4.166;2022-11-20T05:12:11;44.97;;;24.43;;
13238;SDS011;6686;51.292;4.166;2022-11-20T05:14:57;47.27;;;24.77;;
13238;SDS011;6686;51.292;4.166;2022-11-20T05:17:52;42.70;;;24.67;;
13238;SDS011;6686;51.292;4.166;2022-11-20T05:20:34;45.23;;;23.90;;
13238;SDS011;6686;51.292;4.166;2022-11-20T05:23:20;47.23;;;25.33;;
13238;SDS011;6686;51.292;4.166;2022-11-20T05:26:07;43.97;;;24.33;;
13238;SDS011;6686;51.292;4.166;2022-11-20T05:28:52;42.00;;;24.87;;
13238;SDS011;6686;51.292;4.166;2022-11-20T05:31:40;46.77;;;24.77;;
13238;SDS011;6686;51.292;4.166;2022-11-20T05:34:25;46.88;;;29.52;;
13238;SDS011;6686;51.292;4.166;2022-11-20T05:37:11;49.50;;;28.47;;
13238;SDS011;6686;51.292;4.166;2022-11-20T05:43:32;47.23;;;27.10;;
13238;SDS011;6686;51.292;4.166;2022-11-20T05:46:19;45.50;;;27.40;;
13238;SDS011;6686;51.292;4.166;2022-11-20T05:49:04;46.47;;;26.90;;
13238;SDS011;6686;51.292;4.166;2022-11-20T05:51:50;48.00;;;26.03;;
13238;SDS011;6686;51.292;4.166;2022-11-20T05:54:37;46.63;;;26.40;;
13238;SDS011;6686;51.292;4.166;2022-11-20T05:57:22;47.13;;;26.20;;
13238;SDS011;6686;51.292;4.166;2022-11-20T06:00:09;45.87;;;26.80;;
13238;SDS011;6686;51.292;4.166;2022-11-20T06:02:55;47.07;;;26.33;;
13238;SDS011;6686;51.292;4.166;2022-11-20T06:05:40;43.97;;;25.67;;
13238;SDS011;6686;51.292;4.166;2022-11-20T06:08:27;46.77;;;28.43;;
13238;SDS011;6686;51.292;4.166;2022-11-20T06:11:13;46.10;;;26.17;;
13238;SDS011;6686;51.292;4.166;2022-11-20T06:13:59;51.57;;;26.90;;
13238;SDS011;6686;51.292;4.166;2022-11-20T06:16:45;45.37;;;27.30;;
13238;SDS011;6686;51.292;4.166;2022-11-20T06:19:31;42.17;;;26.20;;
13238;SDS011;6686;51.292;4.166;2022-11-20T06:22:17;47.40;;;25.50;;
13238;SDS011;6686;51.292;4.166;2022-11-20T06:25:03;42.40;;;26.17;;
13238;SDS011;6686;51.292;4.166;2022-11-20T06:27:49;41.17;;;25.07;;
13238;SDS011;6686;51.292;4.166;2022-11-20T06:30:35;42.63;;;25.87;;
13238;SDS011;6686;51.292;4.166;2022-11-20T06:33:20;42.17;;;25.67;;
13238;SDS011;6686;51.292;4.166;2022-11-20T06:36:07;44.30;;;25.63;;
13238;SDS011;6686;51.292;4.166;2022-11-20T06:38:53;38.43;;;23.30;;
13238;SDS011;6686;51.292;4.166;2022-11-20T06:41:38;42.73;;;23.10;;
13238;SDS011;6686;51.292;4.166;2022-11-20T06:44:27;46.90;;;25.13;;
13238;SDS011;6686;51.292;4.166;2022-11-20T06:47:13;44.83;;;30.85;;
13238;SDS011;6686;51.292;4.166;2022-11-20T06:50:00;43.10;;;26.53;;
13238;SDS011;6686;51.292;4.166;2022-11-20T06:52:46;40.17;;;25.00;;
13238;SDS011;6686;51.292;4.166;2022-11-20T06:55:32;40.40;;;24.03;;
13238;SDS011;6686;51.292;4.166;2022-11-20T06:58:18;42.22;;;29.00;;
13238;SDS011;6686;51.292;4.166;2022-11-20T07:01:05;40.55;;;29.25;;
13238;SDS011;6686;51.292;4.166;2022-11-20T07:03:50;40.33;;;24.70;;
13238;SDS011;6686;51.292;4.166;2022-11-20T07:06:36;40.23;;;23.30;;
13238;SDS011;6686;51.292;4.166;2022-11-20T07:09:22;40.47;;;24.53;;
13238;SDS011;6686;51.292;4.166;2022-11-20T07:12:08;37.20;;;24.00;;
13238;SDS011;6686;51.292;4.166;2022-11-20T07:14:53;41.65;;;28.38;;
13238;SDS011;6686;51.292;4.166;2022-11-20T07:17:39;43.47;;;29.83;;
13238;SDS011;6686;51.292;4.166;2022-11-20T07:20:26;35.50;;;24.23;;
13238;SDS011;6686;51.292;4.166;2022-11-20T07:23:11;34.60;;;23.33;;
13238;SDS011;6686;51.292;4.166;2022-11-20T07:25:58;40.25;;;27.05;;
13238;SDS011;6686;51.292;4.166;2022-11-20T07:28:44;35.90;;;22.10;;
13238;SDS011;6686;51.292;4.166;2022-11-20T07:31:29;38.87;;;22.60;;
13238;SDS011;6686;51.292;4.166;2022-11-20T07:34:15;36.03;;;22.07;;
13238;SDS011;6686;51.292;4.166;2022-11-20T07:37:01;38.23;;;23.00;;
13238;SDS011;6686;51.292;4.166;2022-11-20T07:39:47;35.57;;;23.10;;
13238;SDS011;6686;51.292;4.166;2022-11-20T07:42:33;40.05;;;28.20;;
13238;SDS011;6686;51.292;4.166;2022-11-20T07:45:21;36.10;;;22.57;;
13238;SDS011;6686;51.292;4.166;2022-11-20T07:48:06;37.77;;;23.23;;
13238;SDS011;6686;51.292;4.166;2022-11-20T07:50:56;43.63;;;23.00;;
13238;SDS011;6686;51.292;4.166;2022-11-20T07:53:41;39.00;;;23.03;;
13238;SDS011;6686;51.292;4.166;2022-11-20T07:56:27;40.93;;;22.77;;
13238;SDS011;6686;51.292;4.166;2022-11-20T07:59:13;40.83;;;23.27;;
13238;SDS011;6686;51.292;4.166;2022-11-20T08:01:59;36.03;;;22.47;;
13238;SDS011;6686;51.292;4.166;2022-11-20T08:04:45;38.43;;;23.97;;
13238;SDS011;6686;51.292;4.166;2022-11-20T08:07:41;39.07;;;23.40;;
13238;SDS011;6686;51.292;4.166;2022-11-20T08:10:22;40.33;;;23.70;;
13238;SDS011;6686;51.292;4.166;2022-11-20T08:13:09;44.17;;;22.30;;
13238;SDS011;6686;51.292;4.166;2022-11-20T08:16:13;42.83;;;23.93;;
13238;SDS011;6686;51.292;4.166;2022-11-20T08:18:59;42.63;;;24.20;;
13238;SDS011;6686;51.292;4.166;2022-11-20T08:21:45;38.90;;;22.93;;
13238;SDS011;6686;51.292;4.166;2022-11-20T08:24:31;43.37;;;23.37;;
13238;SDS011;6686;51.292;4.166;2022-11-20T08:27:17;41.83;;;24.90;;
13238;SDS011;6686;51.292;4.166;2022-11-20T08:30:02;41.43;;;23.77;;
13238;SDS011;6686;51.292;4.166;2022-11-20T08:32:49;43.87;;;23.83;;
13238;SDS011;6686;51.292;4.166;2022-11-20T08:35:35;47.73;;;25.17;;
13238;SDS011;6686;51.292;4.166;2022-11-20T08:38:21;44.90;;;25.77;;
13238;SDS011;6686;51.292;4.166;2022-11-20T08:41:07;41.60;;;23.73;;
13238;SDS011;6686;51.292;4.166;2022-11-20T08:44:08;46.00;;;25.20;;
13238;SDS011;6686;51.292;4.166;2022-11-20T08:46:54;42.97;;;23.80;;
13238;SDS011;6686;51.292;4.166;2022-11-20T08:49:40;47.83;;;25.70;;
13238;SDS011;6686;51.292;4.166;2022-11-20T08:52:26;48.13;;;24.63;;
13238;SDS011;6686;51.292;4.166;2022-11-20T08:55:13;40.70;;;22.80;;
13238;SDS011;6686;51.292;4.166;2022-11-20T08:58:03;50.20;;;29.53;;
13238;SDS011;6686;51.292;4.166;2022-11-20T09:00:52;46.80;;;28.77;;
13238;SDS011;6686;51.292;4.166;2022-11-20T09:03:35;51.07;;;29.27;;
13238;SDS011;6686;51.292;4.166;2022-11-20T09:06:27;57.93;;;34.47;;
13238;SDS011;6686;51.292;4.166;2022-11-20T09:09:10;44.67;;;25.43;;
13238;SDS011;6686;51.292;4.166;2022-11-20T09:11:56;40.57;;;23.13;;
13238;SDS011;6686;51.292;4.166;2022-11-20T09:14:42;43.87;;;24.53;;
13238;SDS011;6686;51.292;4.166;2022-11-20T09:17:28;52.40;;;30.08;;
13238;SDS011;6686;51.292;4.166;2022-11-20T09:20:14;48.07;;;27.53;;
13238;SDS011;6686;51.292;4.166;2022-11-20T09:23:00;45.03;;;25.40;;
13238;SDS011;6686;51.292;4.166;2022-11-20T09:25:46;41.97;;;24.73;;
13238;SDS011;6686;51.292;4.166;2022-11-20T09:28:32;51.50;;;29.97;;
13238;SDS011;6686;51.292;4.166;2022-11-20T09:31:21;47.13;;;26.83;;
13238;SDS011;6686;51.292;4.166;2022-11-20T09:34:09;50.47;;;25.53;;
13238;SDS011;6686;51.292;4.166;2022-11-20T09:36:55;49.43;;;24.97;;
13238;SDS011;6686;51.292;4.166;2022-11-20T09:39:41;54.47;;;26.40;;
13238;SDS011;6686;51.292;4.166;2022-11-20T09:52:01;46.17;;;24.63;;
13238;SDS011;6686;51.292;4.166;2022-11-20T09:54:55;47.83;;;25.37;;
13238;SDS011;6686;51.292;4.166;2022-11-20T09:57:42;50.47;;;25.97;;
13238;SDS011;6686;51.292;4.166;2022-11-20T10:00:27;46.60;;;24.70;;
13238;SDS011;6686;51.292;4.166;2022-11-20T10:03:14;46.77;;;23.70;;
13238;SDS011;6686;51.292;4.166;2022-11-20T10:06:02;49.97;;;24.07;;
13238;SDS011;6686;51.292;4.166;2022-11-20T10:08:50;42.90;;;23.20;;
13238;SDS011;6686;51.292;4.166;2022-11-20T10:14:54;49.20;;;25.63;;
13238;SDS011;6686;51.292;4.166;2022-11-20T10:30:06;50.93;;;25.53;;
13238;SDS011;6686;51.292;4.166;2022-11-20T10:33:03;48.47;;;24.73;;
13238;SDS011;6686;51.292;4.166;2022-11-20T10:35:44;45.77;;;24.40;;
13238;SDS011;6686;51.292;4.166;2022-11-20T10:41:23;43.50;;;22.97;;
13238;SDS011;6686;51.292;4.166;2022-11-20T10:44:17;51.15;;;28.80;;
13238;SDS011;6686;51.292;4.166;2022-11-20T10:47:20;47.90;;;25.40;;
13238;SDS011;6686;51.292;4.166;2022-11-20T10:50:09;46.73;;;24.03;;
13238;SDS011;6686;51.292;4.166;2022-11-20T10:53:16;45.77;;;23.50;;
13238;SDS011;6686;51.292;4.166;2022-11-20T10:55:45;43.90;;;22.77;;
13238;SDS011;6686;51.292;4.166;2022-11-20T10:59:15;46.83;;;23.37;;
13238;SDS011;6686;51.292;4.166;2022-11-20T11:01:49;43.33;;;23.33;;
13238;SDS011;6686;51.292;4.166;2022-11-20T11:04:45;46.53;;;23.80;;
13238;SDS011;6686;51.292;4.166;2022-11-20T11:07:33;47.80;;;24.13;;
13238;SDS011;6686;51.292;4.166;2022-11-20T11:11:02;46.57;;;24.37;;
13238;SDS011;6686;51.292;4.166;2022-11-20T11:13:25;38.20;;;21.30;;
13238;SDS011;6686;51.292;4.166;2022-11-20T11:16:21;38.63;;;21.93;;
13238;SDS011;6686;51.292;4.166;2022-11-20T11:19:04;45.67;;;23.07;;
13238;SDS011;6686;51.292;4.166;2022-11-20T11:21:50;41.97;;;22.27;;
13238;SDS011;6686;51.292;4.166;2022-11-20T11:24:35;42.93;;;22.50;;
13238;SDS011;6686;51.292;4.166;2022-11-20T11:27:21;45.10;;;22.20;;
13238;SDS011;6686;51.292;4.166;2022-11-20T11:30:17;41.90;;;22.27;;
13238;SDS011;6686;51.292;4.166;2022-11-20T11:33:03;44.83;;;22.47;;
13238;SDS011;6686;51.292;4.166;2022-11-20T11:35:55;45.73;;;21.40;;
13238;SDS011;6686;51.292;4.166;2022-11-20T11:38:43;50.13;;;24.53;;
13238;SDS011;6686;51.292;4.166;2022-11-20T11:41:30;42.97;;;21.87;;
13238;SDS011;6686;51.292;4.166;2022-11-20T11:44:22;47.67;;;25.40;;
13238;SDS011;6686;51.292;4.166;2022-11-20T11:47:46;43.10;;;21.97;;
13238;SDS011;6686;51.292;4.166;2022-11-20T11:50:22;41.30;;;22.53;;
13238;SDS011;6686;51.292;4.166;2022-11-20T11:56:19;39.87;;;21.77;;
13238;SDS011;6686;51.292;4.166;2022-11-20T11:59:02;40.33;;;19.07;;
13238;SDS011;6686;51.292;4.166;2022-11-20T12:01:49;41.22;;;23.12;;
13238;SDS011;6686;51.292;4.166;2022-11-20T12:04:42;35.77;;;19.87;;
13238;SDS011;6686;51.292;4.166;2022-11-20T12:08:13;38.93;;;20.03;;
13238;SDS011;6686;51.292;4.166;2022-11-20T12:10:23;34.47;;;19.90;;
13238;SDS011;6686;51.292;4.166;2022-11-20T12:16:04;40.43;;;18.07;;
13238;SDS011;6686;51.292;4.166;2022-11-20T12:18:57;28.77;;;16.30;;
13238;SDS011;6686;51.292;4.166;2022-11-20T12:24:41;36.60;;;16.43;;
13238;SDS011;6686;51.292;4.166;2022-11-20T12:27:39;27.80;;;15.57;;
13238;SDS011;6686;51.292;4.166;2022-11-20T12:30:21;33.10;;;16.93;;
13238;SDS011;6686;51.292;4.166;2022-11-20T12:36:56;31.80;;;15.77;;
13238;SDS011;6686;51.292;4.166;2022-11-20T12:39:25;23.03;;;13.10;;
13238;SDS011;6686;51.292;4.166;2022-11-20T12:42:20;13.53;;;9.03;;
13238;SDS011;6686;51.292;4.166;2022-11-20T12:49:09;10.70;;;6.03;;
13238;SDS011;6686;51.292;4.166;2022-11-20T12:52:01;9.20;;;5.63;;
13238;SDS011;6686;51.292;4.166;2022-11-20T12:54:56;9.43;;;6.07;;
13238;SDS011;6686;51.292;4.166;2022-11-20T12:57:49;8.70;;;5.27;;
13238;SDS011;6686;51.292;4.166;2022-11-20T13:00:30;7.60;;;5.00;;
13238;SDS011;6686;51.292;4.166;2022-11-20T13:03:30;6.62;;;4.93;;
13238;SDS011;6686;51.292;4.166;2022-11-20T13:06:17;11.93;;;6.10;;
13238;SDS011;6686;51.292;4.166;2022-11-20T13:09:11;12.13;;;8.13;;
13238;SDS011;6686;51.292;4.166;2022-11-20T13:18:14;10.87;;;5.47;;
13238;SDS011;6686;51.292;4.166;2022-11-20T13:21:00;5.67;;;4.73;;
13238;SDS011;6686;51.292;4.166;2022-11-20T13:23:47;10.33;;;5.83;;
13238;SDS011;6686;51.292;4.166;2022-11-20T13:26:32;12.37;;;7.17;;
13238;SDS011;6686;51.292;4.166;2022-11-20T13:29:18;11.33;;;5.83;;
13238;SDS011;6686;51.292;4.166;2022-11-20T13:32:05;9.73;;;5.57;;
13238;SDS011;6686;51.292;4.166;2022-11-20T13:35:00;7.67;;;5.43;;
13238;SDS011;6686;51.292;4.166;2022-11-20T13:37:45;9.47;;;6.60;;
13238;SDS011;6686;51.292;4.166;2022-11-20T13:40:31;14.80;;;8.25;;
13238;SDS011;6686;51.292;4.166;2022-11-20T13:46:06;11.17;;;6.63;;
13238;SDS011;6686;51.292;4.166;2022-11-20T13:48:51;6.90;;;5.07;;
13238;SDS011;6686;51.292;4.166;2022-11-20T13:51:47;11.00;;;5.30;;
13238;SDS011;6686;51.292;4.166;2022-11-20T13:57:35;7.57;;;4.73;;
13238;SDS011;6686;51.292;4.166;2022-11-20T14:00:25;7.97;;;4.93;;
13238;SDS011;6686;51.292;4.166;2022-11-20T14:03:16;6.43;;;4.70;;
13238;SDS011;6686;51.292;4.166;2022-11-20T14:06:04;8.63;;;5.23;;
13238;SDS011;6686;51.292;4.166;2022-11-20T14:08:49;5.10;;;4.60;;
13238;SDS011;6686;51.292;4.166;2022-11-20T14:11:35;6.30;;;4.67;;
13238;SDS011;6686;51.292;4.166;2022-11-20T14:14:21;7.00;;;5.17;;
13238;SDS011;6686;51.292;4.166;2022-11-20T14:17:20;6.70;;;4.80;;
13238;SDS011;6686;51.292;4.166;2022-11-20T14:20:06;5.70;;;4.80;;
13238;SDS011;6686;51.292;4.166;2022-11-20T14:22:57;5.43;;;4.93;;
13238;SDS011;6686;51.292;4.166;2022-11-20T14:25:43;6.33;;;4.73;;
13238;SDS011;6686;51.292;4.166;2022-11-20T14:28:29;5.40;;;4.63;;
13238;SDS011;6686;51.292;4.166;2022-11-20T14:31:21;4.03;;;3.70;;
13238;SDS011;6686;51.292;4.166;2022-11-20T14:34:03;4.80;;;4.30;;
13238;SDS011;6686;51.292;4.166;2022-11-20T14:37:01;4.90;;;4.10;;
13238;SDS011;6686;51.292;4.166;2022-11-20T14:39:42;4.97;;;4.23;;
13238;SDS011;6686;51.292;4.166;2022-11-20T14:42:28;6.03;;;4.87;;
13238;SDS011;6686;51.292;4.166;2022-11-20T14:45:14;7.30;;;4.57;;
13238;SDS011;6686;51.292;4.166;2022-11-20T14:48:00;5.60;;;5.10;;
13238;SDS011;6686;51.292;4.166;2022-11-20T14:50:46;5.43;;;4.90;;
13238;SDS011;6686;51.292;4.166;2022-11-20T14:53:32;5.57;;;4.83;;
13238;SDS011;6686;51.292;4.166;2022-11-20T14:56:24;5.30;;;4.80;;
13238;SDS011;6686;51.292;4.166;2022-11-20T14:59:08;5.17;;;4.77;;
13238;SDS011;6686;51.292;4.166;2022-11-20T15:02:02;6.90;;;5.87;;
13238;SDS011;6686;51.292;4.166;2022-11-20T15:07:36;7.63;;;6.30;;
13238;SDS011;6686;51.292;4.166;2022-11-20T15:10:24;7.40;;;5.47;;
13238;SDS011;6686;51.292;4.166;2022-11-20T15:13:13;6.47;;;5.60;;
13238;SDS011;6686;51.292;4.166;2022-11-20T15:16:01;6.67;;;5.30;;
13238;SDS011;6686;51.292;4.166;2022-11-20T15:18:47;6.97;;;6.37;;
13238;SDS011;6686;51.292;4.166;2022-11-20T15:21:33;7.37;;;6.57;;
13238;SDS011;6686;51.292;4.166;2022-11-20T15:24:19;8.90;;;7.10;;
13238;SDS011;6686;51.292;4.166;2022-11-20T15:27:07;8.60;;;7.17;;
13238;SDS011;6686;51.292;4.166;2022-11-20T15:29:51;7.23;;;6.57;;
13238;SDS011;6686;51.292;4.166;2022-11-20T15:32:37;11.33;;;7.43;;
13238;SDS011;6686;51.292;4.166;2022-11-20T15:35:23;9.40;;;6.73;;
13238;SDS011;6686;51.292;4.166;2022-11-20T15:38:08;9.30;;;7.10;;
13238;SDS011;6686;51.292;4.166;2022-11-20T15:40:55;9.03;;;6.77;;
13238;SDS011;6686;51.292;4.166;2022-11-20T15:43:41;9.03;;;6.60;;
13238;SDS011;6686;51.292;4.166;2022-11-20T15:46:28;9.83;;;6.30;;
13238;SDS011;6686;51.292;4.166;2022-11-20T15:49:14;8.83;;;4.37;;
13238;SDS011;6686;51.292;4.166;2022-11-20T15:51:59;14.57;;;9.80;;
13238;SDS011;6686;51.292;4.166;2022-11-20T15:54:45;13.60;;;4.33;;
13238;SDS011;6686;51.292;4.166;2022-11-20T15:57:31;12.73;;;4.93;;
13238;SDS011;6686;51.292;4.166;2022-11-20T16:00:17;8.60;;;4.10;;
13238;SDS011;6686;51.292;4.166;2022-11-20T16:03:03;9.23;;;4.20;;
13238;SDS011;6686;51.292;4.166;2022-11-20T16:05:50;11.77;;;4.43;;
13238;SDS011;6686;51.292;4.166;2022-11-20T16:08:35;16.13;;;4.23;;
13238;SDS011;6686;51.292;4.166;2022-11-20T16:11:21;14.73;;;4.18;;
13238;SDS011;6686;51.292;4.166;2022-11-20T16:14:08;13.47;;;3.87;;
13238;SDS011;6686;51.292;4.166;2022-11-20T16:17:12;17.63;;;3.40;;
13238;SDS011;6686;51.292;4.166;2022-11-20T16:19:58;19.47;;;3.77;;
13238;SDS011;6686;51.292;4.166;2022-11-20T16:22:44;15.03;;;3.73;;
13238;SDS011;6686;51.292;4.166;2022-11-20T16:25:29;13.07;;;3.37;;
13238;SDS011;6686;51.292;4.166;2022-11-20T16:28:15;14.55;;;3.65;;
13238;SDS011;6686;51.292;4.166;2022-11-20T16:31:08;16.17;;;4.20;;
13238;SDS011;6686;51.292;4.166;2022-11-20T16:33:53;13.50;;;3.57;;
13238;SDS011;6686;51.292;4.166;2022-11-20T16:36:42;11.90;;;4.10;;
13238;SDS011;6686;51.292;4.166;2022-11-20T16:39:27;15.37;;;3.80;;
13238;SDS011;6686;51.292;4.166;2022-11-20T16:42:13;18.13;;;3.93;;
13238;SDS011;6686;51.292;4.166;2022-11-20T16:44:59;11.97;;;4.17;;
13238;SDS011;6686;51.292;4.166;2022-11-20T16:47:45;18.63;;;4.10;;
13238;SDS011;6686;51.292;4.166;2022-11-20T16:50:31;14.87;;;4.20;;
13238;SDS011;6686;51.292;4.166;2022-11-20T16:53:17;10.00;;;3.23;;
13238;SDS011;6686;51.292;4.166;2022-11-20T16:56:12;9.20;;;4.07;;
13238;SDS011;6686;51.292;4.166;2022-11-20T16:58:58;16.13;;;3.50;;
13238;SDS011;6686;51.292;4.166;2022-11-20T17:01:43;11.43;;;3.60;;
13238;SDS011;6686;51.292;4.166;2022-11-20T17:04:29;21.03;;;4.20;;
13238;SDS011;6686;51.292;4.166;2022-11-20T17:07:15;14.77;;;3.40;;
13238;SDS011;6686;51.292;4.166;2022-11-20T17:10:00;11.67;;;3.07;;
13238;SDS011;6686;51.292;4.166;2022-11-20T17:12:46;13.07;;;3.77;;
13238;SDS011;6686;51.292;4.166;2022-11-20T17:15:32;9.90;;;3.47;;
13238;SDS011;6686;51.292;4.166;2022-11-20T17:18:18;12.43;;;3.85;;
13238;SDS011;6686;51.292;4.166;2022-11-20T17:21:11;11.97;;;3.40;;
13238;SDS011;6686;51.292;4.166;2022-11-20T17:23:53;16.87;;;3.73;;
13238;SDS011;6686;51.292;4.166;2022-11-20T17:26:47;17.23;;;4.37;;
13238;SDS011;6686;51.292;4.166;2022-11-20T17:29:29;12.73;;;4.43;;
13238;SDS011;6686;51.292;4.166;2022-11-20T17:32:15;11.97;;;3.80;;
13238;SDS011;6686;51.292;4.166;2022-11-20T17:35:00;14.00;;;4.27;;
13238;SDS011;6686;51.292;4.166;2022-11-20T17:37:46;13.85;;;4.30;;
13238;SDS011;6686;51.292;4.166;2022-11-20T17:40:39;11.07;;;4.60;;
13238;SDS011;6686;51.292;4.166;2022-11-20T17:43:22;11.90;;;4.60;;